Terminal Aerodrome Forecast
Issued by NWS Shreveport, LA

Home | Current Version | Previous Version | Text Only | Print | Product List | Glossary On
Versions: 1 2 3 4 5 6 7 8 9 10 11 12 13 14 15 16 17 18 19 20 21 22 23
000
FTUS44 KSHV 262354
TAFGGG
TAF
KGGG 262354Z 2700/2724 08007KT P6SM SCT100 BKN250
     FM270600 10008KT P6SM VCSH OVC010
     FM271000 08010G15KT 5SM -SHRA VCTS OVC008CB
     FM271300 07012G18KT 4SM TSRA OVC007CB
      TEMPO 2713/2717 2SM +TSRA OVC015CB
     FM271800 08013G20KT P6SM VCTS BKN020CB OVC030=

USA.gov is the U.S. government's official web portal to all federal, state and local government web resources and services.